Time;durP1;ratioP1;P1;durP2;ratioP2;P2;SDS_P1;SDS_P2;PMS_P1;PMS_P2;Temp;Humidity;BMP_temperature;BMP_pressure;BME280_temperature;BME280_humidity;BME280_pressure;Samples;Min_cycle;Max_cycle;Signal;HPM_P1;HPM_P2
2022/07/05 00:02:11;;;;;;;3.08;1.20;;;;;;;-148.56;100.00;61375.16;5080202;28;20728;-35
2022/07/05 00:05:36;;;;;;;3.45;1.20;;;;;;;-148.56;100.00;61375.16;5060729;28;20032;-32
2022/07/05 00:08:59;;;;;;;2.90;1.10;;;;;;;-148.56;100.00;61375.16;5078782;28;20032;-32
2022/07/05 00:12:24;;;;;;;2.05;1.00;;;;;;;-148.56;100.00;61375.16;5080363;28;20848;-34
2022/07/05 00:15:50;;;;;;;2.63;1.20;;;;;;;-148.56;100.00;61375.16;5081674;28;20461;-32
2022/07/05 00:19:14;;;;;;;2.63;1.10;;;;;;;-148.56;100.00;61375.16;5075324;28;20874;-32
2022/07/05 00:22:38;;;;;;;1.60;1.10;;;;;;;-148.56;100.00;61375.16;5071915;28;20132;-42
2022/07/05 00:26:02;;;;;;;3.63;1.20;;;;;;;-148.56;100.00;61375.16;5066714;28;20062;-40
2022/07/05 00:29:26;;;;;;;1.85;1.10;;;;;;;-148.56;100.00;61375.16;5066024;28;20059;-35
2022/07/05 00:32:50;;;;;;;2.78;1.13;;;;;;;-148.56;100.00;61375.16;5067955;28;20059;-37
2022/07/05 00:36:13;;;;;;;3.67;1.38;;;;;;;-148.56;100.00;61375.16;5073762;28;20134;-33
2022/07/05 00:39:37;;;;;;;1.88;1.20;;;;;;;-148.56;100.00;61375.16;5067886;28;21275;-35
2022/07/05 00:43:01;;;;;;;2.25;1.23;;;;;;;-148.56;100.00;61375.16;5069916;28;20055;-33
2022/07/05 00:46:25;;;;;;;3.22;1.25;;;;;;;-148.56;100.00;61375.16;5071212;28;20096;-34
2022/07/05 00:49:49;;;;;;;4.90;1.20;;;;;;;-148.56;100.00;61375.16;5069017;28;20545;-36
2022/07/05 00:53:13;;;;;;;1.58;0.90;;;;;;;-148.56;100.00;61375.16;5072809;28;20039;-34
2022/07/05 00:56:37;;;;;;;1.75;1.20;;;;;;;-148.56;100.00;61375.16;5077930;28;20571;-34
2022/07/05 01:00:01;;;;;;;4.47;0.90;;;;;;;-148.56;100.00;61375.16;5062946;28;20526;-31
2022/07/05 01:03:27;;;;;;;5.30;1.10;;;;;;;-148.56;100.00;61375.16;5071454;28;20558;-37
2022/07/05 01:06:51;;;;;;;1.90;1.02;;;;;;;-148.56;100.00;61375.16;5076830;28;20035;-35
2022/07/05 01:10:15;;;;;;;2.17;1.00;;;;;;;-148.56;100.00;61375.16;5075526;28;20032;-33
2022/07/05 01:13:39;;;;;;;3.80;1.23;;;;;;;-148.56;100.00;61375.16;5060137;28;20591;-36
2022/07/05 01:17:03;;;;;;;2.22;1.30;;;;;;;-148.56;100.00;61375.16;5059427;28;20130;-35
2022/07/05 01:20:27;;;;;;;2.00;1.15;;;;;;;-148.56;100.00;61375.16;5068679;28;20080;-34
2022/07/05 01:23:51;;;;;;;1.17;0.90;;;;;;;-148.56;100.00;61375.16;5069252;28;20028;-32
2022/07/05 01:27:15;;;;;;;1.77;0.93;;;;;;;-148.56;100.00;61375.16;5080145;28;20037;-31
2022/07/05 01:30:39;;;;;;;1.50;0.85;;;;;;;-148.56;100.00;61375.16;5077987;28;20048;-30
2022/07/05 01:34:04;;;;;;;2.05;1.00;;;;;;;-148.56;100.00;61375.16;5073033;28;20063;-32
2022/07/05 01:37:28;;;;;;;1.45;0.88;;;;;;;-148.56;100.00;61375.16;5065870;28;20034;-35
2022/07/05 01:40:52;;;;;;;2.45;1.00;;;;;;;-148.56;100.00;61375.16;5077875;28;20677;-32
2022/07/05 01:44:17;;;;;;;2.60;1.10;;;;;;;-148.56;100.00;61375.16;5079424;28;20036;-32
2022/07/05 01:47:44;;;;;;;2.50;1.10;;;;;;;-148.56;100.00;61375.16;5076274;28;20035;-34
2022/07/05 01:51:16;;;;;;;2.85;0.80;;;;;;;-148.56;100.00;61375.16;5079294;28;20032;-31
2022/07/05 01:54:40;;;;;;;3.33;1.00;;;;;;;-148.56;100.00;61375.16;5076003;28;20066;-32
2022/07/05 01:58:04;;;;;;;3.70;1.15;;;;;;;-148.56;100.00;61375.16;5068952;28;20062;-31
2022/07/05 02:01:37;;;;;;;4.10;0.77;;;;;;;-148.56;100.00;61375.16;5075847;28;20019;-36
2022/07/05 02:05:06;;;;;;;1.08;0.95;;;;;;;-148.56;100.00;61375.16;5076950;28;20036;-38
2022/07/05 02:08:30;;;;;;;3.03;1.00;;;;;;;-148.56;100.00;61375.16;5070201;28;20179;-33
2022/07/05 02:11:54;;;;;;;1.52;0.90;;;;;;;-148.56;100.00;61375.16;5073260;28;20040;-32
2022/07/05 02:15:18;;;;;;;3.60;1.00;;;;;;;-148.56;100.00;61375.16;5076372;28;20533;-35
2022/07/05 02:18:42;;;;;;;5.55;1.27;;;;;;;-148.56;100.00;61375.16;5072141;28;20031;-35
2022/07/05 02:22:06;;;;;;;7.55;1.30;;;;;;;-148.56;100.00;61375.16;5073987;28;20031;-31
2022/07/05 02:25:29;;;;;;;3.45;1.13;;;;;;;-148.56;100.00;61375.16;5074854;28;20035;-32
2022/07/05 02:28:53;;;;;;;1.67;0.98;;;;;;;-148.56;100.00;61375.16;5077427;28;20039;-33
2022/07/05 02:32:17;;;;;;;1.10;1.00;;;;;;;-148.56;100.00;61375.16;5067406;28;20031;-32
2022/07/05 02:35:41;;;;;;;0.90;0.80;;;;;;;-148.56;100.00;61375.16;5072684;28;20491;-37
2022/07/05 02:39:05;;;;;;;1.25;0.70;;;;;;;-148.56;100.00;61375.16;5071892;28;20020;-31
2022/07/05 02:42:29;;;;;;;3.15;0.90;;;;;;;-148.56;100.00;61375.16;5070500;28;20158;-35
2022/07/05 02:45:52;;;;;;;1.90;1.10;;;;;;;-148.56;100.00;61375.16;5074102;28;21628;-33
2022/07/05 02:49:16;;;;;;;1.70;1.00;;;;;;;-148.56;100.00;61375.16;5071130;28;20081;-35
2022/07/05 02:52:40;;;;;;;2.35;1.10;;;;;;;-148.56;100.00;61375.16;5071819;28;20032;-37
2022/07/05 02:56:04;;;;;;;4.38;1.20;;;;;;;-148.56;100.00;61375.16;5071935;28;20032;-34
2022/07/05 02:59:30;;;;;;;5.45;1.13;;;;;;;-148.56;100.00;61375.16;5081494;28;20024;-39
2022/07/05 03:02:54;;;;;;;1.10;0.77;;;;;;;-148.56;100.00;61375.16;5072234;28;20036;-36
2022/07/05 03:06:18;;;;;;;2.42;0.80;;;;;;;-148.56;100.00;61375.16;5067852;28;20031;-35
2022/07/05 03:09:41;;;;;;;6.85;0.95;;;;;;;-148.56;100.00;61375.16;5077860;28;20043;-32
2022/07/05 03:13:06;;;;;;;3.22;1.08;;;;;;;-148.56;100.00;61375.16;5072597;28;20084;-32
2022/07/05 03:16:30;;;;;;;1.83;1.30;;;;;;;-148.56;100.00;61375.16;5069263;28;20027;-33
2022/07/05 03:19:53;;;;;;;3.67;0.90;;;;;;;-148.56;100.00;61375.16;5060056;28;20028;-35
2022/07/05 03:23:17;;;;;;;1.63;0.95;;;;;;;-148.56;100.00;61375.16;5077996;28;20493;-33
2022/07/05 03:26:41;;;;;;;1.80;0.98;;;;;;;-148.56;100.00;61375.16;5079585;28;20032;-31
2022/07/05 03:30:05;;;;;;;3.22;0.80;;;;;;;-148.56;100.00;61375.16;5066768;28;20042;-35
2022/07/05 03:33:29;;;;;;;2.00;1.17;;;;;;;-148.56;100.00;61375.16;5077745;28;20033;-35
2022/07/05 03:36:53;;;;;;;1.02;0.88;;;;;;;-148.56;100.00;61375.16;5077103;28;20066;-37
2022/07/05 03:40:17;;;;;;;1.13;0.80;;;;;;;-148.56;100.00;61375.16;5074113;28;20031;-32
2022/07/05 03:43:41;;;;;;;3.78;0.80;;;;;;;-148.56;100.00;61375.16;5078316;28;20035;-34
2022/07/05 03:47:05;;;;;;;0.95;0.70;;;;;;;-148.56;100.00;61375.16;5074868;28;20027;-33
2022/07/05 03:50:29;;;;;;;2.13;0.63;;;;;;;-148.56;100.00;61375.16;5077034;28;20803;-32
2022/07/05 03:53:52;;;;;;;2.50;1.00;;;;;;;-148.56;100.00;61375.16;5069291;28;20101;-33
2022/07/05 03:57:16;;;;;;;2.15;1.00;;;;;;;-148.56;100.00;61375.16;5067616;28;20031;-33
2022/07/05 04:00:40;;;;;;;4.35;1.08;;;;;;;-148.56;100.00;61375.16;5074229;28;20039;-33
2022/07/05 04:04:04;;;;;;;1.73;1.05;;;;;;;-148.56;100.00;61375.16;5071495;28;20039;-31
2022/07/05 04:07:28;;;;;;;3.28;1.10;;;;;;;-148.56;100.00;61375.16;5068705;28;20790;-33
2022/07/05 04:10:52;;;;;;;3.75;0.98;;;;;;;-148.56;100.00;61375.16;5072152;28;20084;-34
2022/07/05 04:14:16;;;;;;;2.42;1.13;;;;;;;-148.56;100.00;61375.16;5069923;28;20051;-37
2022/07/05 04:17:52;;;;;;;1.50;0.73;;;;;;;-148.56;100.00;61375.16;5073246;28;20055;-34
2022/07/05 04:21:16;;;;;;;1.73;0.85;;;;;;;-148.56;100.00;61375.16;5070939;28;20511;-30
2022/07/05 04:28:22;;;;;;;2.63;0.90;;;;;;;-148.56;100.00;61375.16;5070879;28;20211;-37
2022/07/05 04:31:46;;;;;;;1.55;0.95;;;;;;;-148.56;100.00;61375.16;5074936;28;20188;-32
2022/07/05 04:35:10;;;;;;;2.45;1.10;;;;;;;-148.56;100.00;61375.16;5068409;28;20027;-31
2022/07/05 04:38:34;;;;;;;2.25;1.10;;;;;;;-148.56;100.00;61375.16;5074164;28;20040;-35
2022/07/05 04:41:58;;;;;;;3.22;0.85;;;;;;;-148.56;100.00;61375.16;5071404;28;20024;-37
2022/07/05 04:45:22;;;;;;;2.95;0.80;;;;;;;-148.56;100.00;61375.16;5071014;28;20040;-36
2022/07/05 04:48:46;;;;;;;3.03;1.00;;;;;;;-148.56;100.00;61375.16;5072461;28;20024;-35
2022/07/05 04:52:09;;;;;;;1.85;0.93;;;;;;;-148.56;100.00;61375.16;5071140;28;22366;-31
2022/07/05 04:55:34;;;;;;;1.10;0.90;;;;;;;-148.56;100.00;61375.16;5066060;28;20820;-33
2022/07/05 04:58:58;;;;;;;1.45;0.80;;;;;;;-148.56;100.00;61375.16;5073307;28;20556;-31
2022/07/05 05:02:21;;;;;;;1.08;0.88;;;;;;;-148.56;100.00;61375.16;5068298;28;20036;-34
2022/07/05 05:05:45;;;;;;;4.25;1.20;;;;;;;-148.56;100.00;61375.16;5067836;28;20509;-36
2022/07/05 05:09:09;;;;;;;1.77;0.90;;;;;;;-148.56;100.00;61375.16;5066967;28;20036;-36
2022/07/05 05:12:33;;;;;;;1.65;0.93;;;;;;;-148.56;100.00;61375.16;5074979;28;20035;-32
2022/07/05 05:15:57;;;;;;;1.23;0.90;;;;;;;-148.56;100.00;61375.16;5068158;28;20678;-32
2022/07/05 05:19:21;;;;;;;4.35;1.23;;;;;;;-148.56;100.00;61375.16;5062761;28;20034;-35
2022/07/05 05:22:45;;;;;;;1.58;1.08;;;;;;;-148.56;100.00;61375.16;5069795;28;20023;-33
2022/07/05 05:26:09;;;;;;;2.13;1.00;;;;;;;-148.56;100.00;61375.16;5070323;28;20092;-36
2022/07/05 05:29:33;;;;;;;5.40;1.20;;;;;;;-148.56;100.00;61375.16;5065515;28;20032;-35
2022/07/05 05:32:57;;;;;;;1.77;0.90;;;;;;;-148.56;100.00;61375.16;5074155;28;20085;-36
2022/07/05 05:36:21;;;;;;;1.83;1.10;;;;;;;-148.56;100.00;61375.16;5068466;28;20035;-33
2022/07/05 05:39:44;;;;;;;1.73;1.17;;;;;;;-148.56;100.00;61375.16;5069328;28;21318;-35
2022/07/05 05:43:08;;;;;;;1.45;0.80;;;;;;;-148.56;100.00;61375.16;5070980;28;20056;-31
2022/07/05 05:46:32;;;;;;;3.78;1.30;;;;;;;-148.56;100.00;61375.16;5074534;28;20027;-39
2022/07/05 05:49:56;;;;;;;2.72;0.90;;;;;;;-148.56;100.00;61375.16;5074940;28;20032;-30
2022/07/05 05:53:20;;;;;;;2.42;0.90;;;;;;;-148.56;100.00;61375.16;5072605;28;20028;-34
2022/07/05 05:56:44;;;;;;;1.73;0.90;;;;;;;-148.56;100.00;61375.16;5074624;28;20027;-32
2022/07/05 06:00:08;;;;;;;2.28;0.80;;;;;;;-148.56;100.00;61375.16;5072456;28;20053;-35
2022/07/05 06:03:32;;;;;;;2.00;0.75;;;;;;;-148.56;100.00;61375.16;5076015;28;20047;-32
2022/07/05 06:06:56;;;;;;;2.40;1.10;;;;;;;-148.56;100.00;61375.16;5075586;28;20086;-32
2022/07/05 06:10:20;;;;;;;2.38;1.20;;;;;;;-148.56;100.00;61375.16;5073728;28;20056;-33
2022/07/05 06:13:44;;;;;;;1.45;0.90;;;;;;;-148.56;100.00;61375.16;5072539;28;20042;-32
2022/07/05 06:17:08;;;;;;;13.40;1.00;;;;;;;-148.56;100.00;61375.16;5074966;28;20031;-37
2022/07/05 06:20:32;;;;;;;2.08;1.05;;;;;;;-148.56;100.00;61375.16;5070962;28;20028;-33
2022/07/05 06:23:56;;;;;;;3.95;1.00;;;;;;;-148.56;100.00;61375.16;5076086;28;20034;-36
2022/07/05 06:27:20;;;;;;;4.38;1.10;;;;;;;-148.56;100.00;61375.16;5072970;28;20028;-32
2022/07/05 06:30:44;;;;;;;2.38;0.90;;;;;;;-148.56;100.00;61375.16;5069961;28;20098;-32
2022/07/05 06:34:08;;;;;;;3.42;1.02;;;;;;;-148.56;100.00;61375.16;5068098;28;21297;-33
2022/07/05 06:37:41;;;;;;;8.52;2.90;;;;;;;-148.56;100.00;61375.16;5068107;28;20057;-35
2022/07/05 06:41:05;;;;;;;8.10;2.13;;;;;;;-148.56;100.00;61375.16;5065129;28;20669;-32
2022/07/05 06:44:29;;;;;;;13.82;1.90;;;;;;;-148.56;100.00;61375.16;5067635;28;20040;-35
2022/07/05 06:48:03;;;;;;;11.48;1.70;;;;;;;-148.56;100.00;61375.16;5062746;28;21664;-32
2022/07/05 06:51:27;;;;;;;11.63;1.58;;;;;;;-148.56;100.00;61375.16;5067596;28;20035;-31
2022/07/05 06:54:51;;;;;;;7.30;1.40;;;;;;;-148.56;100.00;61375.16;5066086;28;20299;-35
2022/07/05 06:58:18;;;;;;;6.45;1.60;;;;;;;-148.56;100.00;61375.16;5069086;28;20024;-38
2022/07/05 07:01:42;;;;;;;21.73;1.90;;;;;;;-148.56;100.00;61375.16;5071867;28;20024;-31
2022/07/05 07:05:07;;;;;;;23.17;2.10;;;;;;;-148.56;100.00;61375.16;5071919;28;20086;-32
2022/07/05 07:12:13;;;;;;;;;;;;;;;-148.56;100.00;61375.16;5067665;28;20054;-32
2022/07/05 07:15:40;;;;;;;14.07;1.92;;;;;;;-148.56;100.00;61375.16;5059691;28;20328;-32
2022/07/05 07:19:04;;;;;;;13.45;1.48;;;;;;;-148.56;100.00;61375.16;5031549;28;20577;-39
2022/07/05 07:22:28;;;;;;;13.70;2.08;;;;;;;-148.56;100.00;61375.16;5071238;28;20024;-33
2022/07/05 07:25:52;;;;;;;9.02;1.73;;;;;;;-148.56;100.00;61375.16;5069048;28;20031;-35
2022/07/05 07:29:16;;;;;;;8.57;1.60;;;;;;;-148.56;100.00;61375.16;5068180;28;20035;-31
2022/07/05 07:32:40;;;;;;;11.85;1.50;;;;;;;-148.56;100.00;61375.16;5064589;28;20497;-33
2022/07/05 07:36:04;;;;;;;16.38;1.95;;;;;;;-148.56;100.00;61375.16;5063536;28;20149;-34
2022/07/05 07:39:28;;;;;;;27.38;2.47;;;;;;;-148.56;100.00;61375.16;5059968;28;20043;-32
2022/07/05 07:42:52;;;;;;;26.20;2.40;;;;;;;-148.56;100.00;61375.16;5066470;28;20035;-31
2022/07/05 07:46:16;;;;;;;20.83;2.08;;;;;;;-148.56;100.00;61375.16;5058555;28;20639;-31
2022/07/05 07:49:41;;;;;;;15.10;1.67;;;;;;;-148.56;100.00;61375.16;5066150;28;20071;-30
2022/07/05 07:53:05;;;;;;;10.23;1.67;;;;;;;-148.56;100.00;61375.16;5062305;28;20055;-31
2022/07/05 07:56:28;;;;;;;12.35;1.83;;;;;;;-148.56;100.00;61375.16;5064831;28;20703;-30
2022/07/05 07:59:52;;;;;;;18.00;1.50;;;;;;;-148.56;100.00;61375.16;5062978;28;20031;-35
2022/07/05 08:03:16;;;;;;;16.75;1.80;;;;;;;-148.56;100.00;61375.16;5070550;28;20027;-31
2022/07/05 08:06:40;;;;;;;17.00;1.60;;;;;;;-148.56;100.00;61375.16;5071667;28;20069;-32
2022/07/05 08:10:05;;;;;;;10.02;1.50;;;;;;;-148.56;100.00;61375.16;5074385;28;20035;-30
2022/07/05 08:13:28;;;;;;;22.63;1.48;;;;;;;-148.56;100.00;61375.16;5072823;28;20040;-30
2022/07/05 08:16:52;;;;;;;5.15;0.95;;;;;;;-148.56;100.00;61375.16;5066406;28;20043;-30
2022/07/05 08:24:00;;;;;;;4.13;0.80;;;;;;;-148.56;100.00;61375.16;5065493;28;20046;-33
2022/07/05 08:27:24;;;;;;;4.22;1.00;;;;;;;-148.56;100.00;61375.16;5073365;28;20035;-30
2022/07/05 08:30:48;;;;;;;5.57;1.00;;;;;;;-148.56;100.00;61375.16;5066657;28;20032;-31
2022/07/05 08:34:12;;;;;;;12.82;1.50;;;;;;;-148.56;100.00;61375.16;5069298;28;20043;-30
2022/07/05 08:37:36;;;;;;;6.82;1.00;;;;;;;-148.56;100.00;61375.16;5068154;28;20073;-32
2022/07/05 08:40:59;;;;;;;3.08;1.10;;;;;;;-148.56;100.00;61375.16;5066677;28;21856;-31
2022/07/05 08:44:23;;;;;;;3.95;1.35;;;;;;;-148.56;100.00;61375.16;5066810;28;20574;-32
2022/07/05 08:47:47;;;;;;;3.75;1.00;;;;;;;-148.56;100.00;61375.16;5075662;28;20055;-29
2022/07/05 08:51:16;;;;;;;18.58;2.30;;;;;;;-148.56;100.00;61375.16;5048262;28;20861;-29
2022/07/05 08:54:40;;;;;;;23.05;2.28;;;;;;;-148.56;100.00;61375.16;5052911;28;20128;-33
2022/07/05 08:58:04;;;;;;;19.77;1.67;;;;;;;-148.56;100.00;61375.16;5074766;28;20027;-31
2022/07/05 09:01:31;;;;;;;12.27;1.88;;;;;;;-148.56;100.00;61375.16;5064682;28;20048;-34
2022/07/05 09:04:55;;;;;;;9.23;1.90;;;;;;;-148.56;100.00;61375.16;5058021;28;20035;-39
2022/07/05 09:08:19;;;;;;;10.95;2.10;;;;;;;-148.56;100.00;61375.16;5051615;28;20077;-36
2022/07/05 09:11:43;;;;;;;11.75;2.30;;;;;;;-148.56;100.00;61375.16;5047180;28;20485;-34
2022/07/05 09:15:20;;;;;;;8.65;2.20;;;;;;;-148.56;100.00;61375.16;5044393;28;20032;-35
2022/07/05 09:18:44;;;;;;;7.88;2.00;;;;;;;-148.56;100.00;61375.16;5044150;28;20039;-34
2022/07/05 09:22:21;;;;;;;7.55;2.28;;;;;;;-148.56;100.00;61375.16;5057161;28;21180;-29
2022/07/05 09:25:45;;;;;;;6.80;2.13;;;;;;;-148.56;100.00;61375.16;5063472;28;20028;-31
2022/07/05 09:29:09;;;;;;;12.45;2.35;;;;;;;-148.56;100.00;61375.16;5062069;28;20091;-31
2022/07/05 09:32:34;;;;;;;6.20;2.17;;;;;;;-148.56;100.00;61375.16;5070381;28;20032;-31
2022/07/05 09:36:16;;;;;;;6.18;2.20;;;;;;;-148.56;100.00;61375.16;5069165;28;20031;-36
2022/07/05 09:39:40;;;;;;;10.25;2.22;;;;;;;-148.56;100.00;61375.16;5074341;28;20062;-31
2022/07/05 09:43:12;;;;;;;10.40;2.50;;;;;;;-148.56;100.00;61375.16;5061652;28;20840;-37
2022/07/05 09:46:36;;;;;;;6.60;2.00;;;;;;;-148.56;100.00;61375.16;5063111;28;20192;-34
2022/07/05 09:50:03;;;;;;;5.80;1.83;;;;;;;-148.56;100.00;61375.16;5073088;28;20039;-33
2022/07/05 09:53:30;;;;;;;9.25;1.90;;;;;;;-148.56;100.00;61375.16;5069545;28;20039;-36
2022/07/05 09:57:00;;;;;;;5.68;1.83;;;;;;;-148.56;100.00;61375.16;5050790;28;20044;-35
2022/07/05 10:00:24;;;;;;;7.82;2.05;;;;;;;-148.56;100.00;61375.16;5054871;28;20035;-35
2022/07/05 10:03:57;;;;;;;5.57;1.83;;;;;;;-148.56;100.00;61375.16;5061459;28;20027;-33
2022/07/05 10:07:31;;;;;;;8.18;2.50;;;;;;;-148.56;100.00;61375.16;5063627;28;20815;-32
2022/07/05 10:10:54;;;;;;;15.93;4.28;;;;;;;-148.56;100.00;61375.16;5069391;28;20035;-31
2022/07/05 10:14:19;;;;;;;20.02;5.55;;;;;;;-148.56;100.00;61375.16;5072899;28;20031;-34
2022/07/05 10:17:50;;;;;;;18.35;5.38;;;;;;;-148.56;100.00;61375.16;5078410;28;20032;-33
2022/07/05 10:21:18;;;;;;;21.17;6.10;;;;;;;-148.56;100.00;61375.16;5068680;28;20052;-33
2022/07/05 10:24:42;;;;;;;18.75;4.80;;;;;;;-148.56;100.00;61375.16;5065766;28;20414;-29
2022/07/05 10:28:07;;;;;;;27.50;5.20;;;;;;;-148.56;100.00;61375.16;5072962;28;20132;-29
2022/07/05 10:31:31;;;;;;;28.67;5.30;;;;;;;-148.56;100.00;61375.16;5071142;28;20039;-31
2022/07/05 10:34:55;;;;;;;18.40;4.90;;;;;;;-148.56;100.00;61375.16;5068935;28;20035;-32
2022/07/05 10:38:20;;;;;;;16.55;4.78;;;;;;;-148.56;100.00;61375.16;5054587;28;20139;-34
2022/07/05 10:41:46;;;;;;;15.82;4.30;;;;;;;-148.56;100.00;61375.16;5042367;28;20807;-30
2022/07/05 10:45:28;;;;;;;11.40;3.92;;;;;;;-148.56;100.00;61375.16;5056222;28;20080;-30
2022/07/05 10:49:14;;;;;;;13.88;4.43;;;;;;;-148.56;100.00;61375.16;5040429;28;20123;-32
2022/07/05 10:52:38;;;;;;;13.75;4.07;;;;;;;-148.56;100.00;61375.16;5054288;28;20050;-32
2022/07/05 10:56:21;;;;;;;17.08;4.57;;;;;;;-148.56;100.00;61375.16;5046876;28;20035;-34
2022/07/05 11:00:04;;;;;;;16.88;4.20;;;;;;;-148.56;100.00;61375.16;5056264;28;20032;-32
2022/07/05 11:03:46;;;;;;;12.55;4.45;;;;;;;-148.56;100.00;61375.16;5052742;28;20621;-33
2022/07/05 11:08:02;;;;;;;8.38;3.50;;;;;;;-148.56;100.00;61375.16;5050666;28;22125;-33
2022/07/05 11:11:27;;;;;;;8.10;3.33;;;;;;;-148.56;100.00;61375.16;4975593;28;20101;-32
2022/07/05 11:14:51;;;;;;;10.02;3.50;;;;;;;-148.56;100.00;61375.16;5055230;28;20119;-31
2022/07/05 11:18:16;;;;;;;7.60;3.25;;;;;;;-148.56;100.00;61375.16;5053459;28;20080;-32
2022/07/05 11:21:40;;;;;;;7.40;3.20;;;;;;;-148.56;100.00;61375.16;5052606;28;20032;-28
2022/07/05 11:25:17;;;;;;;8.07;3.25;;;;;;;-148.56;100.00;61375.16;5057403;28;20035;-28
2022/07/05 11:29:02;;;;;;;8.55;2.90;;;;;;;-148.56;100.00;61375.16;5046322;28;20032;-33
2022/07/05 11:32:38;;;;;;;7.60;3.08;;;;;;;-148.56;100.00;61375.16;5042412;28;20191;-30
2022/07/05 11:36:22;;;;;;;6.65;2.83;;;;;;;-148.56;100.00;61375.16;5037243;28;20023;-33
2022/07/05 11:40:05;;;;;;;9.77;2.90;;;;;;;-148.56;100.00;61375.16;5041638;28;20028;-31
2022/07/05 11:43:29;;;;;;;7.50;3.00;;;;;;;-148.56;100.00;61375.16;5049425;28;20043;-30
2022/07/05 11:46:56;;;;;;;8.13;3.17;;;;;;;-148.56;100.00;61375.16;5047490;28;20501;-32
2022/07/05 11:50:24;;;;;;;19.08;5.80;;;;;;;-148.56;100.00;61375.16;5029744;28;20051;-34
2022/07/05 11:53:48;;;;;;;28.38;8.10;;;;;;;-148.56;100.00;61375.16;5046651;28;20058;-31
2022/07/05 11:57:12;;;;;;;31.77;9.32;;;;;;;-148.56;100.00;61375.16;5046066;28;21676;-30
2022/07/05 12:00:36;;;;;;;35.28;9.48;;;;;;;-148.56;100.00;61375.16;5044926;28;20046;-30
2022/07/05 12:04:04;;;;;;;31.25;9.77;;;;;;;-148.56;100.00;61375.16;5043087;28;20038;-31
2022/07/05 12:07:31;;;;;;;30.58;10.35;;;;;;;-148.56;100.00;61375.16;5031258;28;20035;-35
2022/07/05 12:14:45;;;;;;;;;;;;;;;-148.56;100.00;61375.16;5053946;28;20070;-31
2022/07/05 12:18:14;;;;;;;25.60;7.83;;;;;;;-148.56;100.00;61375.16;5040244;28;19919;-32
2022/07/05 12:21:38;;;;;;;22.73;7.18;;;;;;;-148.56;100.00;61375.16;5061579;28;20031;-32
2022/07/05 12:25:03;;;;;;;17.98;7.13;;;;;;;-148.56;100.00;61375.16;5055682;28;20028;-31
2022/07/05 12:28:27;;;;;;;20.52;6.78;;;;;;;-148.56;100.00;61375.16;5058255;28;20054;-32
2022/07/05 12:32:00;;;;;;;19.42;6.63;;;;;;;-148.56;100.00;61375.16;5060604;28;20082;-30
2022/07/05 12:35:36;;;;;;;18.85;6.72;;;;;;;-148.56;100.00;61375.16;5059530;28;20039;-33
2022/07/05 12:39:07;;;;;;;22.80;6.97;;;;;;;-148.56;100.00;61375.16;5059083;28;20035;-33
2022/07/05 12:42:32;;;;;;;17.67;6.57;;;;;;;-148.56;100.00;61375.16;5058923;28;20168;-29
2022/07/05 12:46:05;;;;;;;16.63;5.97;;;;;;;-148.56;100.00;61375.16;5057874;28;20020;-31
2022/07/05 12:49:30;;;;;;;17.05;6.03;;;;;;;-148.56;100.00;61375.16;5058841;28;20031;-29
2022/07/05 12:52:57;;;;;;;15.98;5.70;;;;;;;-148.56;100.00;61375.16;5057695;28;20020;-34
2022/07/05 13:00:07;;;;;;;14.13;5.32;;;;;;;-148.56;100.00;61375.16;5059749;28;20038;-35
2022/07/05 13:04:08;;;;;;;14.82;5.25;;;;;;;-148.56;100.00;61375.16;5064720;28;21185;-33
2022/07/05 13:07:51;;;;;;;17.33;5.47;;;;;;;-148.56;100.00;61375.16;5063569;28;20774;-31
2022/07/05 13:11:31;;;;;;;12.75;5.53;;;;;;;-148.56;100.00;61375.16;5079703;28;20039;-31
2022/07/05 13:14:55;;;;;;;11.98;4.47;;;;;;;-148.56;100.00;61375.16;5088176;28;20051;-30
2022/07/05 13:18:25;;;;;;;12.00;4.82;;;;;;;-148.56;100.00;61375.16;5087079;28;20031;-30
2022/07/05 13:21:49;;;;;;;10.82;4.40;;;;;;;-148.56;100.00;61375.16;5088955;28;20877;-34
2022/07/05 13:25:13;;;;;;;12.93;4.55;;;;;;;-148.56;100.00;61375.16;5086792;28;20036;-31
2022/07/05 13:28:38;;;;;;;14.88;4.60;;;;;;;-148.56;100.00;61375.16;5089635;28;20031;-33
2022/07/05 13:32:01;;;;;;;10.65;4.47;;;;;;;-148.56;100.00;61375.16;5085718;28;20035;-31
2022/07/05 13:35:25;;;;;;;9.20;4.10;;;;;;;-148.56;100.00;61375.16;5075361;28;20085;-32
2022/07/05 13:38:49;;;;;;;10.65;4.10;;;;;;;-148.56;100.00;61375.16;5080568;28;20477;-31
2022/07/05 13:42:13;;;;;;;11.05;4.38;;;;;;;-148.56;100.00;61375.16;5085225;28;20155;-32
2022/07/05 13:45:37;;;;;;;9.10;3.78;;;;;;;-148.56;100.00;61375.16;5079859;28;20023;-32
2022/07/05 13:49:01;;;;;;;9.40;3.88;;;;;;;-148.56;100.00;61375.16;5080053;28;20062;-34
2022/07/05 13:52:25;;;;;;;11.05;4.18;;;;;;;-148.56;100.00;61375.16;5086492;28;20032;-34
2022/07/05 13:55:49;;;;;;;9.07;3.78;;;;;;;-148.56;100.00;61375.16;5082047;28;20062;-29
2022/07/05 13:59:13;;;;;;;11.38;3.75;;;;;;;-148.56;100.00;61375.16;5084545;28;20028;-31
2022/07/05 14:02:36;;;;;;;7.20;3.20;;;;;;;-148.56;100.00;61375.16;5084822;28;20040;-32
2022/07/05 14:06:00;;;;;;;8.43;3.50;;;;;;;-148.56;100.00;61375.16;5083241;28;20058;-35
2022/07/05 14:09:25;;;;;;;7.70;3.40;;;;;;;-148.56;100.00;61375.16;5082956;28;20028;-32
2022/07/05 14:12:49;;;;;;;8.40;3.65;;;;;;;-148.56;100.00;61375.16;5042149;28;20039;-32
2022/07/05 14:16:13;;;;;;;7.60;3.50;;;;;;;-148.56;100.00;61375.16;5040791;28;20868;-30
2022/07/05 14:19:37;;;;;;;8.40;3.83;;;;;;;-148.56;100.00;61375.16;5041442;28;20035;-31
2022/07/05 14:23:01;;;;;;;6.70;3.15;;;;;;;-148.56;100.00;61375.16;5041866;28;20032;-35
2022/07/05 14:26:27;;;;;;;6.78;3.10;;;;;;;-148.56;100.00;61375.16;5041481;28;20191;-29
2022/07/05 14:29:51;;;;;;;10.55;3.90;;;;;;;-148.56;100.00;61375.16;5043621;28;20051;-34
2022/07/05 14:33:15;;;;;;;8.52;3.40;;;;;;;-148.56;100.00;61375.16;5040299;28;20101;-33
2022/07/05 14:36:39;;;;;;;6.95;3.10;;;;;;;-148.56;100.00;61375.16;5040647;28;20036;-33
2022/07/05 14:40:04;;;;;;;7.47;3.40;;;;;;;-148.56;100.00;61375.16;5040424;28;20041;-33
2022/07/05 14:43:28;;;;;;;8.05;3.20;;;;;;;-148.56;100.00;61375.16;5043486;28;20032;-30
2022/07/05 14:46:53;;;;;;;7.13;2.85;;;;;;;-148.56;100.00;61375.16;5039075;28;20076;-34
2022/07/05 14:50:17;;;;;;;6.75;3.00;;;;;;;-148.56;100.00;61375.16;5041239;28;20146;-33
2022/07/05 14:53:42;;;;;;;6.93;3.00;;;;;;;-148.56;100.00;61375.16;5041508;28;20144;-36
2022/07/05 14:57:06;;;;;;;5.10;2.63;;;;;;;-148.56;100.00;61375.16;5043623;28;20040;-34
2022/07/05 15:00:30;;;;;;;7.03;2.58;;;;;;;-148.56;100.00;61375.16;5038530;28;20058;-32
2022/07/05 15:03:54;;;;;;;5.57;2.63;;;;;;;-148.56;100.00;61375.16;5043926;28;20024;-27
2022/07/05 15:07:18;;;;;;;7.93;2.83;;;;;;;-148.56;100.00;61375.16;5040977;28;20100;-30
2022/07/05 15:10:41;;;;;;;6.00;2.60;;;;;;;-148.56;100.00;61375.16;5067482;28;20058;-33
2022/07/05 15:14:05;;;;;;;5.13;2.92;;;;;;;-148.56;100.00;61375.16;5083830;28;20059;-31
2022/07/05 15:17:29;;;;;;;6.68;2.55;;;;;;;-148.56;100.00;61375.16;5083298;28;20035;-32
2022/07/05 15:20:53;;;;;;;5.20;2.60;;;;;;;-148.56;100.00;61375.16;5068642;28;20035;-30
2022/07/05 15:24:19;;;;;;;6.30;2.55;;;;;;;-148.56;100.00;61375.16;5087768;28;20055;-30
2022/07/05 15:27:43;;;;;;;5.13;2.60;;;;;;;-148.56;100.00;61375.16;5086888;28;20036;-30
2022/07/05 15:31:07;;;;;;;5.57;2.58;;;;;;;-148.56;100.00;61375.16;5085367;28;20170;-32
2022/07/05 15:34:31;;;;;;;6.55;2.70;;;;;;;-148.56;100.00;61375.16;5086666;28;20598;-33
2022/07/05 15:37:54;;;;;;;4.95;2.55;;;;;;;-148.56;100.00;61375.16;5086311;28;20106;-33
2022/07/05 15:41:18;;;;;;;4.07;2.28;;;;;;;-148.56;100.00;61375.16;5086402;28;20055;-30
2022/07/05 15:44:42;;;;;;;5.00;2.28;;;;;;;-148.56;100.00;61375.16;5081260;28;20024;-30
2022/07/05 15:48:06;;;;;;;5.80;2.53;;;;;;;-148.56;100.00;61375.16;5085511;28;20485;-33
2022/07/05 15:51:30;;;;;;;3.45;2.17;;;;;;;-148.56;100.00;61375.16;5082384;28;20106;-31